createdAt,value
2023-03-02T00:00:02.499Z,-2.26
2023-03-02T00:01:02.331Z,-2.24
2023-03-02T00:02:02.405Z,-2.26
2023-03-02T00:03:02.526Z,-2.32
2023-03-02T00:04:02.495Z,-2.33
2023-03-02T00:05:02.577Z,-2.32
2023-03-02T00:06:02.449Z,-2.29
2023-03-02T00:07:02.496Z,-2.33
2023-03-02T00:08:02.232Z,-2.33
2023-03-02T00:09:02.504Z,-2.32
2023-03-02T00:10:02.518Z,-2.33
2023-03-02T00:11:02.463Z,-2.33
2023-03-02T00:12:02.463Z,-2.32
2023-03-02T00:13:02.384Z,-2.29
2023-03-02T00:14:02.427Z,-2.29
2023-03-02T00:15:02.511Z,-2.26
2023-03-02T00:16:02.419Z,-2.26
2023-03-02T00:17:02.380Z,-2.26
2023-03-02T00:18:02.395Z,-2.29
2023-03-02T00:19:02.353Z,-2.33
2023-03-02T00:20:02.146Z,-2.36
2023-03-02T00:21:02.405Z,-2.39
2023-03-02T00:22:02.313Z,-2.40
2023-03-02T00:23:02.286Z,-2.47
2023-03-02T00:24:02.342Z,-2.47
2023-03-02T00:25:02.383Z,-2.48
2023-03-02T00:26:02.361Z,-2.54
2023-03-02T00:27:02.258Z,-2.56
2023-03-02T00:28:02.269Z,-2.58
2023-03-02T00:29:02.265Z,-2.60
2023-03-02T00:30:02.254Z,-2.61
2023-03-02T00:31:02.351Z,-2.63
2023-03-02T00:32:02.349Z,-2.66
2023-03-02T00:33:02.200Z,-2.64
2023-03-02T00:34:02.220Z,-2.63
2023-03-02T00:35:02.112Z,-2.68
2023-03-02T00:36:02.224Z,-2.69
2023-03-02T00:37:01.985Z,-2.68
2023-03-02T00:38:02.140Z,-2.72
2023-03-02T00:39:02.132Z,-2.74
2023-03-02T00:40:02.144Z,-2.74
2023-03-02T00:41:02.100Z,-2.71
2023-03-02T00:42:02.079Z,-2.68
2023-03-02T00:43:02.207Z,-2.63
2023-03-02T00:44:02.026Z,-2.56
2023-03-02T00:45:01.999Z,-2.53
2023-03-02T00:46:02.131Z,-2.48
2023-03-02T00:47:02.251Z,-2.43
2023-03-02T00:48:02.102Z,-2.38
2023-03-02T00:49:02.149Z,-2.33
2023-03-02T00:50:02.042Z,-2.38
2023-03-02T00:51:02.118Z,-2.39
2023-03-02T00:52:02.032Z,-2.40
2023-03-02T00:53:02.027Z,-2.45
2023-03-02T00:54:02.038Z,-2.47
2023-03-02T00:55:02.029Z,-2.50
2023-03-02T00:56:01.889Z,-2.56
2023-03-02T00:57:01.981Z,-2.56
2023-03-02T00:58:01.883Z,-2.57
2023-03-02T00:59:01.885Z,-2.57
2023-03-02T01:00:01.799Z,-2.54
2023-03-02T01:01:01.846Z,-2.53
2023-03-02T01:02:01.830Z,-2.50
2023-03-02T01:03:02.054Z,-2.42
2023-03-02T01:04:01.949Z,-2.43
2023-03-02T01:05:01.886Z,-2.40
2023-03-02T01:06:01.900Z,-2.43
2023-03-02T01:07:01.835Z,-2.45
2023-03-02T01:08:01.849Z,-2.42
2023-03-02T01:09:01.923Z,-2.43
2023-03-02T01:10:01.847Z,-2.42
2023-03-02T01:11:01.852Z,-2.39
2023-03-02T01:12:01.832Z,-2.39
2023-03-02T01:13:01.913Z,-2.32
2023-03-02T01:14:01.906Z,-2.18
2023-03-02T01:15:01.809Z,-2.16
2023-03-02T01:16:01.791Z,-2.14
2023-03-02T01:17:01.597Z,-2.16
2023-03-02T01:18:01.840Z,-2.14
2023-03-02T01:19:01.837Z,-2.16
2023-03-02T01:20:01.733Z,-2.14
2023-03-02T01:21:01.716Z,-2.14
2023-03-02T01:22:01.705Z,-2.14
2023-03-02T01:23:01.693Z,-2.11
2023-03-02T01:24:01.760Z,-2.11
2023-03-02T01:25:01.633Z,-2.13
2023-03-02T01:26:01.652Z,-2.16
2023-03-02T01:27:01.641Z,-2.17
2023-03-02T01:28:01.634Z,-2.16
2023-03-02T01:29:01.636Z,-2.17
2023-03-02T01:30:01.718Z,-2.21
2023-03-02T01:31:01.751Z,-2.28
2023-03-02T01:32:01.782Z,-2.35
2023-03-02T01:33:01.636Z,-2.36
2023-03-02T01:34:01.658Z,-2.43
2023-03-02T01:35:01.752Z,-2.47
2023-03-02T01:36:01.669Z,-2.50
2023-03-02T01:37:01.604Z,-2.53
2023-03-02T01:38:01.608Z,-2.57
2023-03-02T01:39:01.596Z,-2.58
2023-03-02T01:40:01.525Z,-2.61
2023-03-02T01:41:01.504Z,-2.64
2023-03-02T01:42:01.660Z,-2.66
2023-03-02T01:43:01.566Z,-2.66
2023-03-02T01:44:01.568Z,-2.71
2023-03-02T01:45:01.557Z,-2.71
2023-03-02T01:46:01.607Z,-2.75
2023-03-02T01:47:01.560Z,-2.76
2023-03-02T01:48:01.570Z,-2.79
2023-03-02T01:49:01.486Z,-2.82
2023-03-02T01:50:01.536Z,-2.90
2023-03-02T01:51:01.488Z,-2.94
2023-03-02T01:52:01.475Z,-2.99
2023-03-02T01:53:01.542Z,-3.02
2023-03-02T01:54:01.441Z,-3.04
2023-03-02T01:55:01.424Z,-3.08
2023-03-02T01:56:01.410Z,-3.08
2023-03-02T01:57:01.210Z,-3.10
2023-03-02T01:58:01.380Z,-3.07
2023-03-02T01:59:01.476Z,-3.07
2023-03-02T02:00:01.416Z,-3.04
2023-03-02T02:01:01.428Z,-3.02
2023-03-02T02:02:01.414Z,-2.96
2023-03-02T02:03:01.454Z,-2.97
2023-03-02T02:04:01.424Z,-2.96
2023-03-02T02:05:01.355Z,-2.97
2023-03-02T02:06:01.148Z,-2.96
2023-03-02T02:07:01.260Z,-2.99
2023-03-02T02:08:01.136Z,-3.02
2023-03-02T02:09:01.292Z,-3.07
2023-03-02T02:10:01.220Z,-3.10
2023-03-02T02:11:01.194Z,-3.11
2023-03-02T02:12:01.309Z,-3.14
2023-03-02T02:13:01.317Z,-3.20
2023-03-02T02:14:01.304Z,-3.25
2023-03-02T02:15:01.210Z,-3.28
2023-03-02T02:16:01.058Z,-3.31
2023-03-02T02:17:01.292Z,-3.32
2023-03-02T02:18:01.210Z,-3.33
2023-03-02T02:19:01.135Z,-3.31
2023-03-02T02:20:01.224Z,-3.35
2023-03-02T02:21:01.146Z,-3.41
2023-03-02T02:22:01.155Z,-3.43
2023-03-02T02:23:01.161Z,-3.41
2023-03-02T02:24:01.151Z,-3.39
2023-03-02T02:25:01.229Z,-3.41
2023-03-02T02:26:01.219Z,-3.46
2023-03-02T02:27:01.139Z,-3.51
2023-03-02T02:28:01.113Z,-3.56
2023-03-02T02:29:00.901Z,-3.56
2023-03-02T02:30:01.178Z,-3.54
2023-03-02T02:31:01.020Z,-3.56
2023-03-02T02:32:01.120Z,-3.61
2023-03-02T02:33:01.051Z,-3.62
2023-03-02T02:34:01.076Z,-3.64
2023-03-02T02:35:01.131Z,-3.64
2023-03-02T02:36:01.169Z,-3.67
2023-03-02T02:37:00.994Z,-3.67
2023-03-02T02:38:01.014Z,-3.65
2023-03-02T02:39:01.018Z,-3.70
2023-03-02T02:40:01.021Z,-3.70
2023-03-02T02:41:01.008Z,-3.72
2023-03-02T02:42:01.091Z,-3.71
2023-03-02T02:43:01.081Z,-3.75
2023-03-02T02:44:00.988Z,-3.75
2023-03-02T02:45:01.006Z,-3.75
2023-03-02T02:46:00.957Z,-3.72
2023-03-02T02:47:01.028Z,-3.71
2023-03-02T02:48:01.045Z,-3.75
2023-03-02T02:49:00.898Z,-3.75
2023-03-02T02:50:00.913Z,-3.75
2023-03-02T02:51:00.922Z,-3.78
2023-03-02T02:52:00.976Z,-3.80
2023-03-02T02:53:00.885Z,-3.83
2023-03-02T02:54:00.880Z,-3.86
2023-03-02T02:55:00.879Z,-3.84
2023-03-02T02:56:00.839Z,-3.86
2023-03-02T02:57:00.962Z,-3.84
2023-03-02T02:58:00.754Z,-3.86
2023-03-02T02:59:00.837Z,-3.89
2023-03-02T03:00:00.819Z,-3.90
2023-03-02T03:01:00.932Z,-3.90
2023-03-02T03:02:00.583Z,-3.94
2023-03-02T03:03:00.811Z,-3.94
2023-03-02T03:04:00.766Z,-3.98
2023-03-02T03:05:00.762Z,-3.98
2023-03-02T03:06:00.784Z,-3.98
2023-03-02T03:07:00.817Z,-3.94
2023-03-02T03:08:00.776Z,-3.96
2023-03-02T03:09:00.709Z,-3.96
2023-03-02T03:10:00.559Z,-3.96
2023-03-02T03:11:00.537Z,-3.93
2023-03-02T03:12:00.702Z,-3.96
2023-03-02T03:13:00.827Z,-3.96
2023-03-02T03:14:00.802Z,-3.94
2023-03-02T03:15:00.574Z,-3.91
2023-03-02T03:16:00.593Z,-3.87
2023-03-02T03:17:00.682Z,-3.91
2023-03-02T03:18:00.617Z,-3.90
2023-03-02T03:19:00.631Z,-3.93
2023-03-02T03:20:00.628Z,-3.94
2023-03-02T03:21:00.635Z,-3.96
2023-03-02T03:22:00.421Z,-3.96
2023-03-02T03:23:00.667Z,-3.96
2023-03-02T03:24:00.537Z,-3.99
2023-03-02T03:25:00.391Z,-4.01
2023-03-02T03:26:00.572Z,-3.98
2023-03-02T03:27:00.495Z,-4.01
2023-03-02T03:28:00.491Z,-3.96
2023-03-02T03:29:00.408Z,-3.98
2023-03-02T03:30:00.506Z,-3.98
2023-03-02T03:31:00.542Z,-3.99
2023-03-02T03:32:00.581Z,-4.01
2023-03-02T03:33:00.446Z,-3.99
2023-03-02T03:34:00.493Z,-3.99
2023-03-02T03:35:00.497Z,-3.99
2023-03-02T03:36:00.552Z,-4.02
2023-03-02T03:37:00.232Z,-4.04
2023-03-02T03:38:00.470Z,-4.04
2023-03-02T03:39:00.481Z,-4.05
2023-03-02T03:40:00.518Z,-4.05
2023-03-02T03:41:00.456Z,-4.09
2023-03-02T03:42:00.393Z,-4.12
2023-03-02T03:43:00.390Z,-4.14
2023-03-02T03:44:00.391Z,-4.19
2023-03-02T03:45:00.480Z,-4.19
2023-03-02T03:46:00.463Z,-4.23
2023-03-02T03:47:00.405Z,-4.18
2023-03-02T03:48:00.334Z,-4.18
2023-03-02T03:49:00.352Z,-4.12
2023-03-02T03:50:00.339Z,-4.14
2023-03-02T03:51:00.419Z,-4.11
2023-03-02T03:52:00.335Z,-4.12
2023-03-02T03:53:01.712Z,-4.08
2023-03-02T03:54:00.314Z,-4.09
2023-03-02T03:55:00.318Z,-4.07
2023-03-02T03:56:00.387Z,-4.07
2023-03-02T03:57:00.298Z,-4.08
2023-03-02T03:58:00.294Z,-4.08
2023-03-02T03:59:00.288Z,-4.08
2023-03-02T04:00:00.276Z,-4.12
2023-03-02T04:01:00.203Z,-4.11
2023-03-02T04:02:00.366Z,-4.12
2023-03-02T04:03:00.203Z,-4.11
2023-03-02T04:04:00.243Z,-4.08
2023-03-02T04:05:00.220Z,-4.09
2023-03-02T04:06:00.206Z,-4.15
2023-03-02T04:07:00.365Z,-4.19
2023-03-02T04:08:00.193Z,-4.20
2023-03-02T04:09:00.190Z,-4.25
2023-03-02T04:10:00.139Z,-4.26
2023-03-02T04:11:00.117Z,-4.26
2023-03-02T04:12:00.105Z,-4.32
2023-03-02T04:13:00.190Z,-4.37
2023-03-02T04:14:00.127Z,-4.38
2023-03-02T04:15:00.179Z,-4.38
2023-03-02T04:16:00.177Z,-4.43
2023-03-02T04:17:00.110Z,-4.43
2023-03-02T04:18:00.121Z,-4.43
2023-03-02T04:19:00.077Z,-4.41
2023-03-02T04:20:00.080Z,-4.41
2023-03-02T04:21:00.096Z,-4.43
2023-03-02T04:21:59.822Z,-4.44
2023-03-02T04:22:59.886Z,-4.43
2023-03-02T04:23:59.850Z,-4.44
2023-03-02T04:24:59.789Z,-4.47
2023-03-02T04:25:59.908Z,-4.48
2023-03-02T04:26:59.805Z,-4.51
2023-03-02T04:27:59.786Z,-4.50
2023-03-02T04:28:59.815Z,-4.54
2023-03-02T04:29:59.974Z,-4.51
2023-03-02T04:31:00.064Z,-4.54
2023-03-02T04:31:59.805Z,-4.54
2023-03-02T04:33:00.040Z,-4.51
2023-03-02T04:33:59.948Z,-4.51
2023-03-02T04:35:00.021Z,-4.51
2023-03-02T04:35:59.960Z,-4.48
2023-03-02T04:36:59.810Z,-4.50
2023-03-02T04:37:59.696Z,-4.50
2023-03-02T04:38:59.661Z,-4.50
2023-03-02T04:39:59.830Z,-4.51
2023-03-02T04:40:59.848Z,-4.47
2023-03-02T04:41:59.662Z,-4.50
2023-03-02T04:42:59.834Z,-4.51
2023-03-02T04:43:59.775Z,-4.50
2023-03-02T04:44:59.890Z,-4.50
2023-03-02T04:45:59.842Z,-4.47
2023-03-02T04:46:59.830Z,-4.48
2023-03-02T04:47:59.656Z,-4.50
2023-03-02T04:48:59.762Z,-4.50
2023-03-02T04:49:59.859Z,-4.48
2023-03-02T04:50:59.802Z,-4.50
2023-03-02T04:51:59.638Z,-4.50
2023-03-02T04:52:59.656Z,-4.50
2023-03-02T04:53:59.754Z,-4.54
2023-03-02T04:54:59.770Z,-4.54
2023-03-02T04:55:59.682Z,-4.50
2023-03-02T04:56:59.507Z,-4.50
2023-03-02T04:57:59.660Z,-4.51
2023-03-02T04:58:59.629Z,-4.54
2023-03-02T04:59:59.662Z,-4.55
2023-03-02T05:00:59.615Z,-4.55
2023-03-02T05:01:59.761Z,-4.54
2023-03-02T05:02:59.452Z,-4.55
2023-03-02T05:04:01.249Z,-4.55
2023-03-02T05:04:59.723Z,-4.55
2023-03-02T05:05:59.474Z,-4.57
2023-03-02T05:06:59.432Z,-4.57
2023-03-02T05:07:59.570Z,-4.58
2023-03-02T05:08:59.532Z,-4.59
2023-03-02T05:09:59.582Z,-4.59
2023-03-02T05:10:59.628Z,-4.62
2023-03-02T05:11:59.578Z,-4.64
2023-03-02T05:12:59.343Z,-4.64
2023-03-02T05:13:59.553Z,-4.64
2023-03-02T05:14:59.570Z,-4.68
2023-03-02T05:15:59.578Z,-4.68
2023-03-02T05:16:59.624Z,-4.71
2023-03-02T05:17:59.538Z,-4.71
2023-03-02T05:18:59.523Z,-4.76
2023-03-02T05:19:59.540Z,-4.75
2023-03-02T05:20:59.458Z,-4.79
2023-03-02T05:21:59.536Z,-4.82
2023-03-02T05:22:59.482Z,-4.79
2023-03-02T05:23:59.491Z,-4.80
2023-03-02T05:24:59.357Z,-4.83
2023-03-02T05:25:59.380Z,-4.83
2023-03-02T05:26:59.226Z,-4.85
2023-03-02T05:27:59.501Z,-4.89
2023-03-02T05:28:59.357Z,-4.89
2023-03-02T05:29:59.176Z,-4.91
2023-03-02T05:30:59.487Z,-4.89
2023-03-02T05:31:59.373Z,-4.94
2023-03-02T05:32:59.412Z,-4.93
2023-03-02T05:33:59.404Z,-4.95
2023-03-02T05:34:59.416Z,-4.94
2023-03-02T05:35:59.366Z,-4.95
2023-03-02T05:36:59.112Z,-4.94
2023-03-02T05:37:59.098Z,-4.95
2023-03-02T05:38:59.373Z,-4.94
2023-03-02T05:39:59.091Z,-4.91
2023-03-02T05:40:59.138Z,-4.93
2023-03-02T05:41:59.067Z,-4.97
2023-03-02T05:42:59.210Z,-4.94
2023-03-02T05:43:59.172Z,-5.00
2023-03-02T05:44:59.042Z,-5.00
2023-03-02T05:45:59.054Z,-5.01
2023-03-02T05:46:59.061Z,-5.01
2023-03-02T05:47:59.015Z,-4.97
2023-03-02T05:48:58.955Z,-4.98
2023-03-02T05:49:59.010Z,-4.97
2023-03-02T05:50:58.968Z,-5.00
2023-03-02T05:51:59.045Z,-4.98
2023-03-02T05:52:59.053Z,-4.97
2023-03-02T05:53:59.036Z,-5.03
2023-03-02T05:54:59.557Z,-5.01
2023-03-02T05:55:58.914Z,-5.00
2023-03-02T05:56:59.183Z,-4.95
2023-03-02T05:57:58.924Z,-4.91
2023-03-02T05:58:59.091Z,-4.91
2023-03-02T05:59:58.913Z,-4.86
2023-03-02T06:00:59.027Z,-4.87
2023-03-02T06:01:59.148Z,-4.89
2023-03-02T06:02:58.899Z,-4.87
2023-03-02T06:03:58.836Z,-4.86
2023-03-02T06:04:58.849Z,-4.91
2023-03-02T06:05:58.832Z,-4.91
2023-03-02T06:06:59.080Z,-4.89
2023-03-02T06:07:58.800Z,-4.86
2023-03-02T06:08:58.819Z,-4.86
2023-03-02T06:09:58.955Z,-4.86
2023-03-02T06:10:58.941Z,-4.83
2023-03-02T06:11:59.013Z,-4.77
2023-03-02T06:12:58.741Z,-4.71
2023-03-02T06:13:58.976Z,-4.66
2023-03-02T06:14:58.902Z,-4.64
2023-03-02T06:15:58.970Z,-4.54
2023-03-02T06:16:59.056Z,-4.47
2023-03-02T06:17:58.763Z,-4.43
2023-03-02T06:18:58.867Z,-4.38
2023-03-02T06:19:58.883Z,-4.29
2023-03-02T06:20:58.707Z,-4.20
2023-03-02T06:21:58.713Z,-3.98
2023-03-02T06:22:58.760Z,-3.46
2023-03-02T06:23:58.766Z,-2.82
2023-03-02T06:24:58.790Z,-2.18
2023-03-02T06:25:58.596Z,-1.63
2023-03-02T06:26:58.795Z,-1.15
2023-03-02T06:27:58.818Z,-0.69
2023-03-02T06:28:58.931Z,-0.27
2023-03-02T06:29:58.726Z,0.05
2023-03-02T06:30:58.739Z,0.38
2023-03-02T06:31:58.852Z,0.64
2023-03-02T06:32:58.592Z,0.94
2023-03-02T06:33:58.713Z,1.26
2023-03-02T06:34:58.743Z,1.55
2023-03-02T06:35:58.836Z,1.82
2023-03-02T06:36:58.665Z,2.10
2023-03-02T06:37:58.802Z,2.46
2023-03-02T06:38:58.696Z,2.81
2023-03-02T06:39:58.641Z,3.10
2023-03-02T06:40:58.640Z,3.47
2023-03-02T06:41:58.734Z,3.76
2023-03-02T06:42:58.653Z,4.00
2023-03-02T06:43:58.575Z,4.21
2023-03-02T06:44:58.746Z,4.40
2023-03-02T06:45:58.645Z,4.61
2023-03-02T06:46:58.602Z,4.77
2023-03-02T06:47:58.591Z,4.94
2023-03-02T06:48:58.622Z,5.16
2023-03-02T06:49:58.553Z,5.41
2023-03-02T06:50:58.558Z,5.78
2023-03-02T06:51:58.548Z,6.11
2023-03-02T06:52:58.530Z,6.33
2023-03-02T06:53:58.599Z,6.58
2023-03-02T06:54:58.512Z,6.87
2023-03-02T06:55:58.514Z,7.08
2023-03-02T06:56:58.527Z,7.24
2023-03-02T06:57:58.606Z,7.41
2023-03-02T06:58:58.545Z,7.15
2023-03-02T06:59:58.478Z,6.69
2023-03-02T07:00:58.501Z,5.77
2023-03-02T07:01:58.540Z,4.88
2023-03-02T07:02:58.440Z,4.32
2023-03-02T07:03:58.535Z,3.78
2023-03-02T07:04:58.507Z,3.33
2023-03-02T07:05:58.421Z,3.00
2023-03-02T07:06:58.500Z,2.74
2023-03-02T07:07:58.428Z,2.55
2023-03-02T07:08:58.423Z,2.33
2023-03-02T07:09:58.412Z,2.19
2023-03-02T07:10:58.335Z,2.04
2023-03-02T07:11:58.332Z,1.93
2023-03-02T07:12:58.137Z,1.98
2023-03-02T07:13:58.364Z,2.56
2023-03-02T07:14:58.344Z,3.70
2023-03-02T07:15:58.334Z,4.91
2023-03-02T07:16:58.482Z,5.92
2023-03-02T07:17:58.271Z,6.99
2023-03-02T07:18:58.305Z,7.72
2023-03-02T07:19:58.201Z,8.55
2023-03-02T07:20:58.352Z,9.16
2023-03-02T07:21:58.256Z,9.66
2023-03-02T07:22:58.245Z,9.93
2023-03-02T07:23:58.235Z,10.33
2023-03-02T07:24:58.034Z,10.70
2023-03-02T07:25:58.442Z,11.14
2023-03-02T07:26:58.266Z,11.21
2023-03-02T07:27:58.251Z,11.53
2023-03-02T07:28:58.148Z,11.71
2023-03-02T07:29:57.973Z,11.85
2023-03-02T07:30:58.055Z,12.05
2023-03-02T07:31:58.189Z,12.16
2023-03-02T07:32:58.100Z,12.27
2023-03-02T07:33:58.155Z,12.39
2023-03-02T07:34:58.148Z,12.02
2023-03-02T07:35:58.154Z,11.97
2023-03-02T07:36:58.076Z,11.80
2023-03-02T07:37:58.061Z,11.64
2023-03-02T07:38:58.134Z,11.20
2023-03-02T07:40:00.290Z,11.17
2023-03-02T07:40:58.171Z,11.29
2023-03-02T07:41:58.063Z,11.62
2023-03-02T07:42:58.054Z,12.23
2023-03-02T07:43:58.114Z,12.37
2023-03-02T07:44:58.015Z,12.41
2023-03-02T07:45:59.562Z,12.26
2023-03-02T07:46:58.032Z,12.41
2023-03-02T07:47:57.965Z,12.26
2023-03-02T07:48:58.039Z,11.68
2023-03-02T07:49:57.975Z,11.36
2023-03-02T07:50:57.979Z,11.83
2023-03-02T07:51:57.956Z,12.62
2023-03-02T07:52:59.887Z,12.89
2023-03-02T07:53:58.045Z,13.30
2023-03-02T07:54:57.930Z,13.74
2023-03-02T07:55:57.910Z,14.04
2023-03-02T07:56:57.891Z,14.25
2023-03-02T07:57:57.878Z,14.81
2023-03-02T07:58:57.864Z,14.95
2023-03-02T07:59:57.941Z,14.99
2023-03-02T08:00:57.880Z,14.81
2023-03-02T08:01:58.005Z,15.05
2023-03-02T08:02:57.953Z,15.19
2023-03-02T08:03:57.879Z,15.36
2023-03-02T08:04:57.930Z,14.95
2023-03-02T08:05:57.785Z,14.86
2023-03-02T08:06:57.757Z,15.45
2023-03-02T08:07:57.762Z,16.06
2023-03-02T08:08:57.776Z,16.45
2023-03-02T08:09:57.784Z,16.44
2023-03-02T08:10:57.713Z,16.56
2023-03-02T08:11:57.709Z,16.30
2023-03-02T08:12:57.709Z,16.85
2023-03-02T08:13:57.674Z,16.45
2023-03-02T08:14:57.732Z,16.03
2023-03-02T08:15:57.771Z,16.16
2023-03-02T08:16:57.757Z,15.84
2023-03-02T08:17:57.670Z,15.57
2023-03-02T08:18:59.737Z,15.70
2023-03-02T08:19:57.643Z,16.23
2023-03-02T08:20:57.576Z,16.65
2023-03-02T08:21:57.693Z,17.43
2023-03-02T08:22:57.616Z,17.66
2023-03-02T08:23:57.646Z,17.87
2023-03-02T08:24:57.566Z,17.36
2023-03-02T08:25:57.630Z,17.48
2023-03-02T08:26:57.605Z,17.03
2023-03-02T08:27:57.698Z,16.74
2023-03-02T08:28:57.573Z,17.08
2023-03-02T08:29:57.559Z,16.53
2023-03-02T08:30:57.565Z,16.34
2023-03-02T08:31:57.689Z,16.73
2023-03-02T08:32:57.509Z,16.20
2023-03-02T08:33:57.490Z,16.04
2023-03-02T08:34:57.481Z,16.15
2023-03-02T08:35:57.570Z,16.55
2023-03-02T08:36:57.533Z,16.68
2023-03-02T08:37:57.522Z,17.08
2023-03-02T08:38:57.426Z,16.89
2023-03-02T08:39:58.696Z,16.92
2023-03-02T08:40:57.549Z,16.18
2023-03-02T08:41:57.434Z,16.58
2023-03-02T08:42:57.497Z,17.15
2023-03-02T08:43:57.387Z,17.53
2023-03-02T08:44:57.374Z,17.20
2023-03-02T08:45:57.436Z,15.79
2023-03-02T08:46:57.386Z,15.76
2023-03-02T08:47:57.449Z,15.63
2023-03-02T08:48:57.388Z,16.26
2023-03-02T08:49:57.380Z,16.35
2023-03-02T08:50:57.369Z,15.92
2023-03-02T08:51:57.342Z,15.56
2023-03-02T08:52:57.323Z,15.99
2023-03-02T08:53:57.376Z,15.74
2023-03-02T08:54:57.373Z,15.15
2023-03-02T08:55:57.322Z,14.39
2023-03-02T08:56:57.223Z,14.80
2023-03-02T08:57:57.279Z,14.64
2023-03-02T08:58:57.346Z,14.93
2023-03-02T08:59:57.273Z,14.99
2023-03-02T09:00:57.255Z,14.65
2023-03-02T09:01:57.250Z,14.72
2023-03-02T09:02:57.415Z,14.20
2023-03-02T09:03:57.356Z,14.07
2023-03-02T09:04:57.300Z,14.02
2023-03-02T09:05:57.236Z,13.80
2023-03-02T09:06:57.299Z,13.69
2023-03-02T09:07:57.228Z,14.02
2023-03-02T09:08:57.256Z,13.67
2023-03-02T09:09:57.259Z,13.94
2023-03-02T09:10:57.203Z,14.12
2023-03-02T09:11:57.213Z,14.60
2023-03-02T09:12:57.211Z,15.24
2023-03-02T09:13:57.210Z,15.56
2023-03-02T09:14:57.204Z,15.43
2023-03-02T09:15:57.120Z,15.92
2023-03-02T09:16:57.221Z,16.34
2023-03-02T09:17:57.102Z,16.99
2023-03-02T09:18:57.105Z,17.63
2023-03-02T09:19:57.182Z,17.97
2023-03-02T09:20:57.108Z,18.13
2023-03-02T09:21:57.113Z,17.88
2023-03-02T09:22:57.202Z,18.09
2023-03-02T09:23:57.107Z,17.91
2023-03-02T09:24:57.119Z,18.27
2023-03-02T09:25:56.978Z,18.79
2023-03-02T09:26:56.990Z,18.99
2023-03-02T09:27:56.977Z,19.02
2023-03-02T09:28:56.976Z,19.25
2023-03-02T09:29:56.971Z,19.38
2023-03-02T09:30:57.172Z,18.94
2023-03-02T09:31:57.142Z,18.06
2023-03-02T09:32:57.188Z,17.66
2023-03-02T09:33:56.981Z,17.66
2023-03-02T09:34:56.920Z,17.51
2023-03-02T09:35:56.949Z,17.41
2023-03-02T09:36:57.049Z,17.22
2023-03-02T09:37:56.962Z,16.30
2023-03-02T09:38:56.911Z,16.41
2023-03-02T09:39:57.024Z,16.09
2023-03-02T09:40:57.132Z,16.96
2023-03-02T09:41:56.860Z,17.66
2023-03-02T09:42:56.953Z,16.98
2023-03-02T09:43:58.675Z,16.68
2023-03-02T09:44:56.883Z,16.14
2023-03-02T09:45:56.886Z,15.63
2023-03-02T09:46:56.957Z,15.67
2023-03-02T09:47:56.869Z,15.27
2023-03-02T09:48:56.856Z,15.12
2023-03-02T09:49:56.844Z,15.06
2023-03-02T09:50:56.823Z,14.57
2023-03-02T09:51:56.884Z,14.75
2023-03-02T09:52:56.777Z,15.21
2023-03-02T09:53:56.854Z,15.15
2023-03-02T09:54:56.799Z,14.86
2023-03-02T09:55:56.770Z,14.74
2023-03-02T09:56:56.742Z,14.72
2023-03-02T09:57:56.802Z,15.15
2023-03-02T09:58:56.790Z,15.20
2023-03-02T09:59:59.853Z,15.13
2023-03-02T10:00:56.749Z,15.28
2023-03-02T10:01:56.716Z,15.41
2023-03-02T10:03:02.424Z,15.88
2023-03-02T10:03:56.947Z,16.14
2023-03-02T10:04:56.825Z,16.62
2023-03-02T10:05:56.681Z,16.33
2023-03-02T10:06:56.734Z,15.20
2023-03-02T10:07:59.240Z,15.02
2023-03-02T10:08:56.678Z,14.38
2023-03-02T10:09:56.707Z,14.78
2023-03-02T10:10:56.648Z,15.08
2023-03-02T10:11:56.681Z,15.33
2023-03-02T10:12:56.552Z,15.52
2023-03-02T10:13:56.616Z,15.33
2023-03-02T10:14:56.589Z,15.03
2023-03-02T10:15:56.655Z,14.99
2023-03-02T10:16:56.621Z,15.03
2023-03-02T10:17:56.619Z,14.38
2023-03-02T10:18:56.666Z,14.19
2023-03-02T10:19:56.620Z,13.73
2023-03-02T10:20:56.507Z,13.92
2023-03-02T10:21:56.500Z,14.24
2023-03-02T10:22:56.619Z,14.14
2023-03-02T10:23:56.601Z,14.37
2023-03-02T10:24:56.467Z,14.93
2023-03-02T10:25:56.466Z,14.93
2023-03-02T10:26:56.438Z,14.78
2023-03-02T10:27:56.461Z,15.45
2023-03-02T10:28:56.517Z,15.26
2023-03-02T10:29:56.516Z,14.88
2023-03-02T10:30:56.486Z,14.95
2023-03-02T10:31:56.461Z,15.24
2023-03-02T10:32:56.382Z,15.35
2023-03-02T10:33:56.483Z,14.81
2023-03-02T10:34:56.505Z,14.87
2023-03-02T10:35:56.346Z,14.88
2023-03-02T10:36:56.390Z,14.62
2023-03-02T10:37:56.367Z,15.21
2023-03-02T10:38:56.445Z,15.74
2023-03-02T10:39:56.376Z,16.34
2023-03-02T10:40:56.357Z,15.82
2023-03-02T10:41:56.290Z,15.66
2023-03-02T10:42:56.268Z,15.38
2023-03-02T10:43:56.268Z,15.33
2023-03-02T10:44:56.275Z,15.66
2023-03-02T10:45:56.312Z,16.35
2023-03-02T10:46:56.478Z,16.01
2023-03-02T10:47:56.391Z,15.89
2023-03-02T10:48:56.255Z,15.85
2023-03-02T10:49:56.348Z,16.41
2023-03-02T10:50:56.433Z,16.49
2023-03-02T10:51:56.260Z,17.06
2023-03-02T10:53:01.122Z,17.40
2023-03-02T10:53:56.231Z,17.32
2023-03-02T10:54:56.211Z,16.95
2023-03-02T10:55:56.284Z,16.78
2023-03-02T10:56:56.226Z,16.37
2023-03-02T10:57:56.200Z,16.73
2023-03-02T10:58:56.520Z,17.54
2023-03-02T10:59:56.147Z,17.55
2023-03-02T11:00:56.268Z,17.73
2023-03-02T11:01:56.201Z,17.23
2023-03-02T11:02:56.143Z,16.88
2023-03-02T11:03:56.136Z,17.13
2023-03-02T11:04:57.570Z,16.45
2023-03-02T11:05:56.176Z,16.92
2023-03-02T11:06:56.206Z,16.58
2023-03-02T11:07:56.077Z,15.97
2023-03-02T11:08:56.082Z,16.25
2023-03-02T11:09:56.096Z,15.93
2023-03-02T11:10:59.764Z,16.67
2023-03-02T11:11:56.038Z,16.86
2023-03-02T11:12:55.970Z,16.99
2023-03-02T11:13:56.089Z,17.23
2023-03-02T11:14:55.975Z,17.10
2023-03-02T11:15:55.990Z,16.88
2023-03-02T11:16:56.009Z,17.33
2023-03-02T11:17:55.793Z,17.63
2023-03-02T11:18:56.088Z,18.44
2023-03-02T11:19:55.948Z,18.10
2023-03-02T11:20:55.938Z,18.07
2023-03-02T11:21:55.861Z,17.97
2023-03-02T11:22:55.938Z,17.73
2023-03-02T11:23:55.934Z,18.07
2023-03-02T11:24:55.930Z,18.33
2023-03-02T11:25:55.846Z,18.17
2023-03-02T11:26:55.962Z,17.67
2023-03-02T11:27:55.820Z,17.32
2023-03-02T11:28:55.824Z,17.43
2023-03-02T11:29:55.820Z,17.64
2023-03-02T11:30:55.840Z,17.43
2023-03-02T11:31:56.024Z,16.80
2023-03-02T11:32:55.783Z,16.62
2023-03-02T11:33:57.973Z,16.55
2023-03-02T11:34:55.757Z,16.68
2023-03-02T11:35:55.852Z,16.58
2023-03-02T11:36:55.762Z,16.26
2023-03-02T11:37:55.781Z,16.09
2023-03-02T11:38:55.807Z,16.52
2023-03-02T11:39:56.164Z,16.31
2023-03-02T11:40:55.743Z,16.59
2023-03-02T11:41:55.760Z,16.11
2023-03-02T11:42:55.756Z,15.70
2023-03-02T11:43:55.768Z,15.89
2023-03-02T11:44:55.668Z,16.40
2023-03-02T11:45:55.677Z,16.26
2023-03-02T11:46:55.723Z,16.00
2023-03-02T11:48:02.548Z,15.94
2023-03-02T11:48:55.653Z,16.30
2023-03-02T11:49:55.721Z,16.37
2023-03-02T11:50:55.626Z,16.40
2023-03-02T11:51:58.285Z,15.94
2023-03-02T11:52:55.660Z,16.03
2023-03-02T11:53:55.690Z,16.52
2023-03-02T11:54:55.701Z,16.53
2023-03-02T11:55:55.598Z,16.44
2023-03-02T11:56:55.586Z,16.30
2023-03-02T11:57:55.578Z,15.76
2023-03-02T11:58:55.581Z,15.24
2023-03-02T11:59:55.589Z,15.08
2023-03-02T12:00:55.600Z,14.24
2023-03-02T12:01:55.619Z,13.43
2023-03-02T12:02:55.590Z,12.64
2023-03-02T12:03:55.528Z,12.37
2023-03-02T12:04:55.552Z,11.85
2023-03-02T12:05:55.576Z,11.31
2023-03-02T12:06:55.512Z,11.32
2023-03-02T12:07:55.445Z,11.47
2023-03-02T12:08:55.482Z,11.10
2023-03-02T12:09:55.487Z,10.86
2023-03-02T12:10:55.498Z,10.88
2023-03-02T12:11:55.509Z,10.81
2023-03-02T12:12:55.431Z,10.94
2023-03-02T12:13:55.434Z,10.81
2023-03-02T12:14:55.449Z,10.46
2023-03-02T12:15:55.307Z,10.09
2023-03-02T12:16:55.542Z,9.81
2023-03-02T12:17:55.382Z,9.61
2023-03-02T12:18:55.306Z,9.48
2023-03-02T12:19:55.316Z,9.58
2023-03-02T12:20:55.319Z,9.39
2023-03-02T12:21:55.321Z,9.30
2023-03-02T12:22:55.299Z,9.20
2023-03-02T12:23:55.283Z,9.05
2023-03-02T12:24:55.270Z,8.90
2023-03-02T12:25:55.262Z,8.88
2023-03-02T12:26:55.253Z,8.93
2023-03-02T12:27:55.260Z,8.93
2023-03-02T12:28:55.811Z,8.99
2023-03-02T12:29:55.239Z,9.06
2023-03-02T12:30:55.244Z,9.09
2023-03-02T12:31:55.384Z,9.01
2023-03-02T12:32:55.254Z,9.04
2023-03-02T12:33:55.257Z,9.06
2023-03-02T12:34:55.246Z,8.84
2023-03-02T12:35:55.260Z,8.76
2023-03-02T12:36:55.188Z,8.79
2023-03-02T12:37:55.249Z,8.63
2023-03-02T12:38:55.164Z,8.60
2023-03-02T12:39:55.098Z,8.60
2023-03-02T12:40:55.176Z,8.69
2023-03-02T12:41:55.203Z,8.45
2023-03-02T12:42:55.143Z,8.42
2023-03-02T12:43:55.111Z,8.35
2023-03-02T12:44:55.205Z,8.33
2023-03-02T12:45:55.159Z,8.22
2023-03-02T12:46:55.032Z,8.14
2023-03-02T12:47:55.231Z,8.17
2023-03-02T12:48:55.145Z,8.28
2023-03-02T12:49:54.986Z,8.32
2023-03-02T12:50:55.089Z,8.26
2023-03-02T12:51:55.115Z,8.29
2023-03-02T12:52:54.968Z,8.32
2023-03-02T12:53:54.963Z,8.18
2023-03-02T12:54:54.952Z,8.18